sensor_id;sensor_type;location;lat;lon;timestamp;pressure;altitude;pressure_sealevel;temperature
52123;BMP280;44118;52.142;10.592;2022-10-16T00:01:30;100118.59;;;14.64
52123;BMP280;44118;52.142;10.592;2022-10-16T00:03:57;100134.72;;;14.63
52123;BMP280;44118;52.142;10.592;2022-10-16T00:06:24;100124.53;;;14.63
52123;BMP280;44118;52.142;10.592;2022-10-16T00:08:50;100121.09;;;14.57
52123;BMP280;44118;52.142;10.592;2022-10-16T00:11:33;100126.16;;;14.49
52123;BMP280;44118;52.142;10.592;2022-10-16T00:14:03;100113.31;;;14.38
52123;BMP280;44118;52.142;10.592;2022-10-16T00:16:29;100123.44;;;14.27
52123;BMP280;44118;52.142;10.592;2022-10-16T00:18:55;100119.97;;;14.19
52123;BMP280;44118;52.142;10.592;2022-10-16T00:21:27;100115.72;;;14.20
52123;BMP280;44118;52.142;10.592;2022-10-16T00:23:54;100126.78;;;14.25
52123;BMP280;44118;52.142;10.592;2022-10-16T00:26:20;100131.94;;;14.32
52123;BMP280;44118;52.142;10.592;2022-10-16T00:28:50;100126.91;;;14.41
52123;BMP280;44118;52.142;10.592;2022-10-16T00:31:16;100128.69;;;14.52
52123;BMP280;44118;52.142;10.592;2022-10-16T00:33:42;100130.44;;;14.59
52123;BMP280;44118;52.142;10.592;2022-10-16T00:36:11;100118.66;;;14.67
52123;BMP280;44118;52.142;10.592;2022-10-16T00:38:37;100125.41;;;14.68
52123;BMP280;44118;52.142;10.592;2022-10-16T00:41:03;100125.41;;;14.67
52123;BMP280;44118;52.142;10.592;2022-10-16T00:49:06;100133.88;;;14.64
52123;BMP280;44118;52.142;10.592;2022-10-16T00:51:38;100139.00;;;14.67
52123;BMP280;44118;52.142;10.592;2022-10-16T00:54:08;100135.56;;;14.67
52123;BMP280;44118;52.142;10.592;2022-10-16T00:56:34;100144.94;;;14.69
52123;BMP280;44118;52.142;10.592;2022-10-16T00:59:03;100133.09;;;14.73
52123;BMP280;44118;52.142;10.592;2022-10-16T01:01:31;100142.41;;;14.69
52123;BMP280;44118;52.142;10.592;2022-10-16T01:03:57;100135.59;;;14.68
52123;BMP280;44118;52.142;10.592;2022-10-16T01:09:17;100160.94;;;14.56
52123;BMP280;44118;52.142;10.592;2022-10-16T01:12:15;100160.06;;;14.51
52123;BMP280;44118;52.142;10.592;2022-10-16T01:14:49;100159.19;;;14.49
52123;BMP280;44118;52.142;10.592;2022-10-16T01:17:28;100151.56;;;14.51
52123;BMP280;44118;52.142;10.592;2022-10-16T01:20:11;100163.47;;;14.55
52123;BMP280;44118;52.142;10.592;2022-10-16T01:25:19;100165.91;;;14.44
52123;BMP280;44118;52.142;10.592;2022-10-16T01:27:48;100156.53;;;14.36
52123;BMP280;44118;52.142;10.592;2022-10-16T01:30:18;100160.66;;;14.27
52123;BMP280;44118;52.142;10.592;2022-10-16T01:32:50;100157.19;;;14.16
52123;BMP280;44118;52.142;10.592;2022-10-16T01:35:30;100167.28;;;14.07
52123;BMP280;44118;52.142;10.592;2022-10-16T01:38:03;100163.88;;;14.05
52123;BMP280;44118;52.142;10.592;2022-10-16T01:40:32;100154.53;;;14.04
52123;BMP280;44118;52.142;10.592;2022-10-16T01:43:03;100164.63;;;13.98
52123;BMP280;44118;52.142;10.592;2022-10-16T01:45:31;100165.44;;;13.97
52123;BMP280;44118;52.142;10.592;2022-10-16T01:47:58;100167.97;;;13.96
52123;BMP280;44118;52.142;10.592;2022-10-16T01:50:26;100167.97;;;13.97
52123;BMP280;44118;52.142;10.592;2022-10-16T01:52:54;100173.13;;;13.99
52123;BMP280;44118;52.142;10.592;2022-10-16T01:55:28;100171.47;;;14.04
52123;BMP280;44118;52.142;10.592;2022-10-16T01:57:56;100179.13;;;14.08
52123;BMP280;44118;52.142;10.592;2022-10-16T02:00:23;100177.47;;;14.10
52123;BMP280;44118;52.142;10.592;2022-10-16T02:02:51;100192.72;;;14.13
52123;BMP280;44118;52.142;10.592;2022-10-16T02:05:51;100186.84;;;14.17
52123;BMP280;44118;52.142;10.592;2022-10-16T02:08:18;100186.03;;;14.21
52123;BMP280;44118;52.142;10.592;2022-10-16T02:10:44;100180.03;;;14.14
52123;BMP280;44118;52.142;10.592;2022-10-16T02:13:23;100189.31;;;14.11
52123;BMP280;44118;52.142;10.592;2022-10-16T02:15:48;100189.31;;;14.09
52123;BMP280;44118;52.142;10.592;2022-10-16T02:18:14;100195.28;;;14.11
52123;BMP280;44118;52.142;10.592;2022-10-16T02:23:57;100203.75;;;14.12
52123;BMP280;44118;52.142;10.592;2022-10-16T02:26:30;100221.53;;;14.15
52123;BMP280;44118;52.142;10.592;2022-10-16T02:29:04;100207.22;;;14.21
52123;BMP280;44118;52.142;10.592;2022-10-16T02:31:35;100220.03;;;14.32
52123;BMP280;44118;52.142;10.592;2022-10-16T02:34:03;100217.53;;;14.38
52123;BMP280;44118;52.142;10.592;2022-10-16T02:36:30;100215.06;;;14.43
52123;BMP280;44118;52.142;10.592;2022-10-16T02:38:57;100208.31;;;14.45
52123;BMP280;44118;52.142;10.592;2022-10-16T02:41:24;100209.97;;;14.43
52123;BMP280;44118;52.142;10.592;2022-10-16T02:43:50;100215.00;;;14.38
52123;BMP280;44118;52.142;10.592;2022-10-16T02:46:16;100215.81;;;14.35
52123;BMP280;44118;52.142;10.592;2022-10-16T02:48:42;100218.34;;;14.35
52123;BMP280;44118;52.142;10.592;2022-10-16T02:51:08;100220.91;;;14.34
52123;BMP280;44118;52.142;10.592;2022-10-16T02:53:33;100220.91;;;14.34
52123;BMP280;44118;52.142;10.592;2022-10-16T02:55:58;100220.88;;;14.29
52123;BMP280;44118;52.142;10.592;2022-10-16T02:58:24;100215.81;;;14.35
52123;BMP280;44118;52.142;10.592;2022-10-16T03:00:49;100220.94;;;14.37
52123;BMP280;44118;52.142;10.592;2022-10-16T03:03:14;100224.34;;;14.39
52123;BMP280;44118;52.142;10.592;2022-10-16T03:05:40;100220.13;;;14.41
52123;BMP280;44118;52.142;10.592;2022-10-16T03:08:05;100210.81;;;14.44
52123;BMP280;44118;52.142;10.592;2022-10-16T03:10:31;100220.09;;;14.39
52123;BMP280;44118;52.142;10.592;2022-10-16T03:12:56;100210.75;;;14.37
52123;BMP280;44118;52.142;10.592;2022-10-16T03:15:21;100209.00;;;14.31
52123;BMP280;44118;52.142;10.592;2022-10-16T03:17:47;100212.31;;;14.23
52123;BMP280;44118;52.142;10.592;2022-10-16T03:20:12;100196.13;;;14.12
52123;BMP280;44118;52.142;10.592;2022-10-16T03:22:38;100202.00;;;14.08
52123;BMP280;44118;52.142;10.592;2022-10-16T03:25:03;100200.25;;;14.03
52123;BMP280;44118;52.142;10.592;2022-10-16T03:27:29;100202.72;;;13.98
52123;BMP280;44118;52.142;10.592;2022-10-16T03:29:54;100200.13;;;13.95
52123;BMP280;44118;52.142;10.592;2022-10-16T03:32:20;100197.50;;;13.88
52123;BMP280;44118;52.142;10.592;2022-10-16T03:34:45;100192.38;;;13.83
52123;BMP280;44118;52.142;10.592;2022-10-16T03:37:11;100201.63;;;13.77
52123;BMP280;44118;52.142;10.592;2022-10-16T03:39:36;100208.34;;;13.72
52123;BMP280;44118;52.142;10.592;2022-10-16T03:42:01;100204.13;;;13.75
52123;BMP280;44118;52.142;10.592;2022-10-16T03:44:27;100199.97;;;13.82
52123;BMP280;44118;52.142;10.592;2022-10-16T03:46:53;100205.91;;;13.84
52123;BMP280;44118;52.142;10.592;2022-10-16T03:49:18;100202.50;;;13.80
52123;BMP280;44118;52.142;10.592;2022-10-16T03:51:43;100206.66;;;13.74
52123;BMP280;44118;52.142;10.592;2022-10-16T03:54:09;100208.31;;;13.71
52123;BMP280;44118;52.142;10.592;2022-10-16T03:56:35;100214.16;;;13.64
52123;BMP280;44118;52.142;10.592;2022-10-16T03:59:00;100209.81;;;13.55
52123;BMP280;44118;52.142;10.592;2022-10-16T04:01:25;100212.22;;;13.46
52123;BMP280;44118;52.142;10.592;2022-10-16T04:03:51;100210.38;;;13.34
52123;BMP280;44118;52.142;10.592;2022-10-16T04:06:16;100209.34;;;13.21
52123;BMP280;44118;52.142;10.592;2022-10-16T04:08:44;100215.97;;;13.13
52123;BMP280;44118;52.142;10.592;2022-10-16T04:11:10;100228.63;;;13.10
52123;BMP280;44118;52.142;10.592;2022-10-16T04:13:36;100232.91;;;13.13
52123;BMP280;44118;52.142;10.592;2022-10-16T04:16:01;100224.44;;;13.12
52123;BMP280;44118;52.142;10.592;2022-10-16T04:18:27;100227.81;;;13.13
52123;BMP280;44118;52.142;10.592;2022-10-16T04:20:53;100235.47;;;13.14
52123;BMP280;44118;52.142;10.592;2022-10-16T04:23:19;100236.41;;;13.22
52123;BMP280;44118;52.142;10.592;2022-10-16T04:25:44;100234.88;;;13.33
52123;BMP280;44118;52.142;10.592;2022-10-16T04:28:09;100224.75;;;13.35
52123;BMP280;44118;52.142;10.592;2022-10-16T04:30:37;100234.94;;;13.36
52123;BMP280;44118;52.142;10.592;2022-10-16T04:33:03;100228.16;;;13.35
52123;BMP280;44118;52.142;10.592;2022-10-16T04:35:28;100240.78;;;13.29
52123;BMP280;44118;52.142;10.592;2022-10-16T04:37:53;100238.09;;;13.22
52123;BMP280;44118;52.142;10.592;2022-10-16T04:40:19;100247.38;;;13.18
52123;BMP280;44118;52.142;10.592;2022-10-16T04:42:44;100247.34;;;13.17
52123;BMP280;44118;52.142;10.592;2022-10-16T04:45:09;100261.75;;;13.19
52123;BMP280;44118;52.142;10.592;2022-10-16T04:47:35;100261.09;;;13.32
52123;BMP280;44118;52.142;10.592;2022-10-16T04:50:00;100246.06;;;13.45
52123;BMP280;44118;52.142;10.592;2022-10-16T04:52:27;100247.91;;;13.57
52123;BMP280;44118;52.142;10.592;2022-10-16T04:54:53;100240.38;;;13.64
52123;BMP280;44118;52.142;10.592;2022-10-16T04:57:19;100257.41;;;13.70
52123;BMP280;44118;52.142;10.592;2022-10-16T04:59:44;100258.28;;;13.72
52123;BMP280;44118;52.142;10.592;2022-10-16T05:02:10;100238.66;;;13.60
52123;BMP280;44118;52.142;10.592;2022-10-16T05:04:35;100229.13;;;13.43
52123;BMP280;44118;52.142;10.592;2022-10-16T05:07:00;100240.75;;;13.28
52123;BMP280;44118;52.142;10.592;2022-10-16T05:09:26;100251.56;;;13.16
52123;BMP280;44118;52.142;10.592;2022-10-16T05:11:52;100251.53;;;13.15
52123;BMP280;44118;52.142;10.592;2022-10-16T05:14:17;100259.16;;;13.15
52123;BMP280;44118;52.142;10.592;2022-10-16T05:16:43;100263.34;;;13.13
52123;BMP280;44118;52.142;10.592;2022-10-16T05:19:08;100269.31;;;13.16
52123;BMP280;44118;52.142;10.592;2022-10-16T05:21:33;100269.31;;;13.18
52123;BMP280;44118;52.142;10.592;2022-10-16T05:23:59;100271.94;;;13.22
52123;BMP280;44118;52.142;10.592;2022-10-16T05:26:24;100267.84;;;13.30
52123;BMP280;44118;52.142;10.592;2022-10-16T05:28:49;100269.63;;;13.37
52123;BMP280;44118;52.142;10.592;2022-10-16T05:31:15;100271.38;;;13.41
52123;BMP280;44118;52.142;10.592;2022-10-16T05:33:41;100273.09;;;13.43
52123;BMP280;44118;52.142;10.592;2022-10-16T05:36:08;100276.56;;;13.47
52123;BMP280;44118;52.142;10.592;2022-10-16T05:38:35;100256.31;;;13.51
52123;BMP280;44118;52.142;10.592;2022-10-16T05:41:01;100260.56;;;13.54
52123;BMP280;44118;52.142;10.592;2022-10-16T05:43:27;100273.28;;;13.57
52123;BMP280;44118;52.142;10.592;2022-10-16T05:46:19;100263.16;;;13.60
52123;BMP280;44118;52.142;10.592;2022-10-16T05:48:45;100272.56;;;13.65
52123;BMP280;44118;52.142;10.592;2022-10-16T05:51:12;100273.44;;;13.67
52123;BMP280;44118;52.142;10.592;2022-10-16T05:53:39;100286.97;;;13.68
52123;BMP280;44118;52.142;10.592;2022-10-16T05:56:06;100293.81;;;13.72
52123;BMP280;44118;52.142;10.592;2022-10-16T05:58:33;100304.09;;;13.80
52123;BMP280;44118;52.142;10.592;2022-10-16T06:01:03;100305.88;;;13.87
52123;BMP280;44118;52.142;10.592;2022-10-16T06:03:29;100312.84;;;14.00
52123;BMP280;44118;52.142;10.592;2022-10-16T06:05:54;100322.31;;;14.13
52123;BMP280;44118;52.142;10.592;2022-10-16T06:08:21;100320.59;;;14.13
52123;BMP280;44118;52.142;10.592;2022-10-16T06:10:47;100329.91;;;14.10
52123;BMP280;44118;52.142;10.592;2022-10-16T06:13:13;100330.75;;;14.09
52123;BMP280;44118;52.142;10.592;2022-10-16T06:15:41;100322.19;;;14.04
52123;BMP280;44118;52.142;10.592;2022-10-16T06:18:10;100328.00;;;13.97
52123;BMP280;44118;52.142;10.592;2022-10-16T06:20:36;100343.25;;;13.97
52123;BMP280;44118;52.142;10.592;2022-10-16T06:23:02;100344.91;;;13.95
52123;BMP280;44118;52.142;10.592;2022-10-16T06:25:30;100346.53;;;13.90
52123;BMP280;44118;52.142;10.592;2022-10-16T06:27:55;100348.25;;;13.91
52123;BMP280;44118;52.142;10.592;2022-10-16T06:30:21;100335.59;;;13.94
52123;BMP280;44118;52.142;10.592;2022-10-16T06:32:46;100328.91;;;13.99
52123;BMP280;44118;52.142;10.592;2022-10-16T06:35:11;100332.31;;;14.01
52123;BMP280;44118;52.142;10.592;2022-10-16T06:37:37;100339.09;;;14.02
52123;BMP280;44118;52.142;10.592;2022-10-16T06:40:02;100345.94;;;14.05
52123;BMP280;44118;52.142;10.592;2022-10-16T06:42:29;100350.28;;;14.14
52123;BMP280;44118;52.142;10.592;2022-10-16T06:44:54;100358.84;;;14.22
52123;BMP280;44118;52.142;10.592;2022-10-16T06:47:20;100359.66;;;14.20
52123;BMP280;44118;52.142;10.592;2022-10-16T06:49:45;100366.34;;;14.13
52123;BMP280;44118;52.142;10.592;2022-10-16T06:52:10;100362.09;;;14.11
52123;BMP280;44118;52.142;10.592;2022-10-16T06:54:36;100369.75;;;14.14
52123;BMP280;44118;52.142;10.592;2022-10-16T06:57:01;100366.34;;;14.13
52123;BMP280;44118;52.142;10.592;2022-10-16T06:59:27;100372.31;;;14.14
52123;BMP280;44118;52.142;10.592;2022-10-16T07:01:52;100374.88;;;14.17
52123;BMP280;44118;52.142;10.592;2022-10-16T07:04:17;100373.16;;;14.14
52123;BMP280;44118;52.142;10.592;2022-10-16T07:06:43;100374.00;;;14.15
52123;BMP280;44118;52.142;10.592;2022-10-16T07:09:09;100382.50;;;14.17
52123;BMP280;44118;52.142;10.592;2022-10-16T07:11:37;100390.13;;;14.17
52123;BMP280;44118;52.142;10.592;2022-10-16T07:14:02;100388.00;;;14.49
52123;BMP280;44118;52.142;10.592;2022-10-16T07:16:30;100395.19;;;14.87
52123;BMP280;44118;52.142;10.592;2022-10-16T07:19:00;100402.91;;;14.96
52123;BMP280;44118;52.142;10.592;2022-10-16T07:21:31;100400.31;;;14.93
52123;BMP280;44118;52.142;10.592;2022-10-16T07:24:00;100401.94;;;14.82
52123;BMP280;44118;52.142;10.592;2022-10-16T07:26:31;100409.66;;;14.91
52123;BMP280;44118;52.142;10.592;2022-10-16T07:28:57;100417.88;;;15.52
52123;BMP280;44118;52.142;10.592;2022-10-16T07:31:23;100422.00;;;16.69
52123;BMP280;44118;52.142;10.592;2022-10-16T07:33:49;100416.19;;;17.78
52123;BMP280;44118;52.142;10.592;2022-10-16T07:36:16;100417.03;;;17.73
52123;BMP280;44118;52.142;10.592;2022-10-16T07:38:43;100411.00;;;18.21
52123;BMP280;44118;52.142;10.592;2022-10-16T07:41:11;100407.91;;;19.24
52123;BMP280;44118;52.142;10.592;2022-10-16T07:43:36;100406.91;;;19.45
52123;BMP280;44118;52.142;10.592;2022-10-16T07:46:02;100410.38;;;20.27
52123;BMP280;44118;52.142;10.592;2022-10-16T07:48:30;100408.13;;;20.73
52123;BMP280;44118;52.142;10.592;2022-10-16T07:51:03;100409.81;;;20.76
52123;BMP280;44118;52.142;10.592;2022-10-16T07:53:29;100428.50;;;20.88
52123;BMP280;44118;52.142;10.592;2022-10-16T07:55:59;100426.44;;;21.14
52123;BMP280;44118;52.142;10.592;2022-10-16T07:58:25;100418.59;;;21.73
52123;BMP280;44118;52.142;10.592;2022-10-16T08:00:51;100406.00;;;22.06
52123;BMP280;44118;52.142;10.592;2022-10-16T08:03:16;100405.84;;;22.15
52123;BMP280;44118;52.142;10.592;2022-10-16T08:05:41;100412.31;;;21.41
52123;BMP280;44118;52.142;10.592;2022-10-16T08:08:12;100434.03;;;20.58
52123;BMP280;44118;52.142;10.592;2022-10-16T08:10:38;100430.59;;;20.53
52123;BMP280;44118;52.142;10.592;2022-10-16T08:13:03;100424.00;;;21.03
52123;BMP280;44118;52.142;10.592;2022-10-16T08:15:28;100434.09;;;21.69
52123;BMP280;44118;52.142;10.592;2022-10-16T08:17:58;100440.06;;;22.21
52123;BMP280;44118;52.142;10.592;2022-10-16T08:20:24;100435.47;;;22.35
52123;BMP280;44118;52.142;10.592;2022-10-16T08:22:50;100445.91;;;21.26
52123;BMP280;44118;52.142;10.592;2022-10-16T08:25:15;100446.31;;;20.27
52123;BMP280;44118;52.142;10.592;2022-10-16T08:27:41;100460.56;;;19.64
52123;BMP280;44118;52.142;10.592;2022-10-16T08:30:07;100470.22;;;19.31
52123;BMP280;44118;52.142;10.592;2022-10-16T08:32:33;100455.50;;;19.61
52123;BMP280;44118;52.142;10.592;2022-10-16T08:34:58;100442.63;;;20.51
52123;BMP280;44118;52.142;10.592;2022-10-16T08:37:24;100456.13;;;21.31
52123;BMP280;44118;52.142;10.592;2022-10-16T08:39:50;100469.72;;;21.40
52123;BMP280;44118;52.142;10.592;2022-10-16T08:50:31;100462.47;;;21.06
52123;BMP280;44118;52.142;10.592;2022-10-16T08:52:58;100463.88;;;20.65
52123;BMP280;44118;52.142;10.592;2022-10-16T08:55:46;100461.84;;;20.16
52123;BMP280;44118;52.142;10.592;2022-10-16T08:58:22;100474.16;;;19.78
52123;BMP280;44118;52.142;10.592;2022-10-16T09:00:55;100467.56;;;19.47
52123;BMP280;44118;52.142;10.592;2022-10-16T09:03:29;100480.56;;;19.17
52123;BMP280;44118;52.142;10.592;2022-10-16T09:06:16;100479.81;;;18.89
52123;BMP280;44118;52.142;10.592;2022-10-16T09:08:49;100485.00;;;18.71
52123;BMP280;44118;52.142;10.592;2022-10-16T09:20:52;100508.13;;;18.47
52123;BMP280;44118;52.142;10.592;2022-10-16T09:23:35;100513.22;;;18.49
52123;BMP280;44118;52.142;10.592;2022-10-16T09:26:02;100510.66;;;18.49
52123;BMP280;44118;52.142;10.592;2022-10-16T09:28:28;100520.91;;;18.53
52123;BMP280;44118;52.142;10.592;2022-10-16T09:30:54;100519.22;;;18.54
52123;BMP280;44118;52.142;10.592;2022-10-16T09:33:24;100510.66;;;18.58
52123;BMP280;44118;52.142;10.592;2022-10-16T09:35:53;100515.78;;;18.59
52123;BMP280;44118;52.142;10.592;2022-10-16T09:38:32;100513.19;;;18.64
52123;BMP280;44118;52.142;10.592;2022-10-16T09:40:59;100517.44;;;18.66
52123;BMP280;44118;52.142;10.592;2022-10-16T09:43:31;100521.72;;;18.67
52123;BMP280;44118;52.142;10.592;2022-10-16T09:48:30;100534.56;;;18.54
52123;BMP280;44118;52.142;10.592;2022-10-16T09:51:02;100532.84;;;18.53
52123;BMP280;44118;52.142;10.592;2022-10-16T09:53:46;100537.16;;;18.45
52123;BMP280;44118;52.142;10.592;2022-10-16T09:56:22;100538.84;;;18.46
52123;BMP280;44118;52.142;10.592;2022-10-16T09:58:56;100543.94;;;18.49
52123;BMP280;44118;52.142;10.592;2022-10-16T10:01:26;100542.25;;;18.49
52123;BMP280;44118;52.142;10.592;2022-10-16T10:03:56;100547.38;;;18.49
52123;BMP280;44118;52.142;10.592;2022-10-16T10:06:36;100552.47;;;18.48
52123;BMP280;44118;52.142;10.592;2022-10-16T10:09:23;100563.56;;;18.60
52123;BMP280;44118;52.142;10.592;2022-10-16T10:11:57;100572.84;;;18.92
52123;BMP280;44118;52.142;10.592;2022-10-16T10:14:44;100563.25;;;19.43
52123;BMP280;44118;52.142;10.592;2022-10-16T10:17:22;100563.06;;;19.79
52123;BMP280;44118;52.142;10.592;2022-10-16T10:24:57;100557.31;;;20.47
52123;BMP280;44118;52.142;10.592;2022-10-16T10:27:32;100546.94;;;20.55
52123;BMP280;44118;52.142;10.592;2022-10-16T10:30:22;100568.16;;;20.78
52123;BMP280;44118;52.142;10.592;2022-10-16T10:33:09;100548.31;;;20.92
52123;BMP280;44118;52.142;10.592;2022-10-16T10:38:59;100565.34;;;21.00
52123;BMP280;44118;52.142;10.592;2022-10-16T10:44:14;100563.41;;;21.16
52123;BMP280;44118;52.142;10.592;2022-10-16T10:46:51;100558.34;;;21.10
52123;BMP280;44118;52.142;10.592;2022-10-16T10:49:49;100560.88;;;21.13
52123;BMP280;44118;52.142;10.592;2022-10-16T10:58:50;100551.69;;;21.59
52123;BMP280;44118;52.142;10.592;2022-10-16T11:00:57;100548.19;;;21.65
52123;BMP280;44118;52.142;10.592;2022-10-16T11:06:20;100561.00;;;21.69
52123;BMP280;44118;52.142;10.592;2022-10-16T11:11:41;100566.84;;;21.13
52123;BMP280;44118;52.142;10.592;2022-10-16T11:14:48;100560.19;;;20.99
52123;BMP280;44118;52.142;10.592;2022-10-16T11:17:22;100569.94;;;20.69
52123;BMP280;44118;52.142;10.592;2022-10-16T11:22:35;100569.31;;;20.48
52123;BMP280;44118;52.142;10.592;2022-10-16T11:27:40;100568.53;;;21.16
52123;BMP280;44118;52.142;10.592;2022-10-16T11:30:20;100573.63;;;21.20
52123;BMP280;44118;52.142;10.592;2022-10-16T11:35:57;100566.13;;;23.92
52123;BMP280;44118;52.142;10.592;2022-10-16T11:38:38;100569.38;;;24.66
52123;BMP280;44118;52.142;10.592;2022-10-16T11:49:31;100565.50;;;25.69
52123;BMP280;44118;52.142;10.592;2022-10-16T11:52:27;100561.22;;;25.11
52123;BMP280;44118;52.142;10.592;2022-10-16T11:55:16;100569.91;;;24.12
52123;BMP280;44118;52.142;10.592;2022-10-16T11:57:48;100568.78;;;23.50
52123;BMP280;44118;52.142;10.592;2022-10-16T12:00:24;100579.03;;;23.13
52123;BMP280;44118;52.142;10.592;2022-10-16T12:05:52;100578.91;;;22.75
52123;BMP280;44118;52.142;10.592;2022-10-16T12:08:20;100582.47;;;22.68
52123;BMP280;44118;52.142;10.592;2022-10-16T12:10:47;100589.22;;;22.75
52123;BMP280;44118;52.142;10.592;2022-10-16T12:18:37;100597.25;;;22.07
52123;BMP280;44118;52.142;10.592;2022-10-16T12:21:03;100599.81;;;22.07
52123;BMP280;44118;52.142;10.592;2022-10-16T12:24:02;100593.81;;;22.09
52123;BMP280;44118;52.142;10.592;2022-10-16T12:26:37;100591.06;;;22.21
52123;BMP280;44118;52.142;10.592;2022-10-16T12:29:23;100585.69;;;22.34
52123;BMP280;44118;52.142;10.592;2022-10-16T12:31:49;100583.78;;;22.44
52123;BMP280;44118;52.142;10.592;2022-10-16T12:34:39;100590.44;;;22.55
52123;BMP280;44118;52.142;10.592;2022-10-16T12:37:45;100592.34;;;22.44
52123;BMP280;44118;52.142;10.592;2022-10-16T12:40:13;100596.56;;;22.50
52123;BMP280;44118;52.142;10.592;2022-10-16T12:42:39;100598.84;;;22.64
52123;BMP280;44118;52.142;10.592;2022-10-16T12:45:37;100599.75;;;22.63
52123;BMP280;44118;52.142;10.592;2022-10-16T12:48:18;100598.94;;;22.60
52123;BMP280;44118;52.142;10.592;2022-10-16T12:50:44;100603.41;;;22.51
52123;BMP280;44118;52.142;10.592;2022-10-16T12:53:21;100607.63;;;22.54
52123;BMP280;44118;52.142;10.592;2022-10-16T12:56:14;100604.78;;;22.69
52123;BMP280;44118;52.142;10.592;2022-10-16T12:59:16;100601.72;;;22.48
52123;BMP280;44118;52.142;10.592;2022-10-16T13:10:28;100606.06;;;21.91
52123;BMP280;44118;52.142;10.592;2022-10-16T13:18:49;100620.81;;;21.82
52123;BMP280;44118;52.142;10.592;2022-10-16T13:21:29;100619.59;;;21.45
52123;BMP280;44118;52.142;10.592;2022-10-16T13:24:23;100631.25;;;21.01
52123;BMP280;44118;52.142;10.592;2022-10-16T13:27:06;100631.25;;;21.00
52123;BMP280;44118;52.142;10.592;2022-10-16T13:29:32;100621.31;;;21.45
52123;BMP280;44118;52.142;10.592;2022-10-16T13:32:00;100629.66;;;21.60
52123;BMP280;44118;52.142;10.592;2022-10-16T13:34:27;100627.03;;;21.64
52123;BMP280;44118;52.142;10.592;2022-10-16T13:36:53;100622.53;;;21.80
52123;BMP280;44118;52.142;10.592;2022-10-16T13:39:27;100630.03;;;21.96
52123;BMP280;44118;52.142;10.592;2022-10-16T13:42:05;100624.59;;;22.17
52123;BMP280;44118;52.142;10.592;2022-10-16T13:44:39;100633.69;;;22.37
52123;BMP280;44118;52.142;10.592;2022-10-16T13:47:10;100632.78;;;22.41
52123;BMP280;44118;52.142;10.592;2022-10-16T13:49:39;100632.81;;;22.38
52123;BMP280;44118;52.142;10.592;2022-10-16T13:52:05;100631.09;;;22.38
52123;BMP280;44118;52.142;10.592;2022-10-16T13:54:30;100635.34;;;22.41
52123;BMP280;44118;52.142;10.592;2022-10-16T13:56:56;100638.91;;;22.34
52123;BMP280;44118;52.142;10.592;2022-10-16T13:59:26;100636.34;;;22.32
52123;BMP280;44118;52.142;10.592;2022-10-16T14:01:55;100638.13;;;22.27
52123;BMP280;44118;52.142;10.592;2022-10-16T14:04:23;100647.41;;;22.37
52123;BMP280;44118;52.142;10.592;2022-10-16T14:06:50;100649.06;;;22.41
52123;BMP280;44118;52.142;10.592;2022-10-16T14:11:50;100648.31;;;22.35
52123;BMP280;44118;52.142;10.592;2022-10-16T14:14:17;100646.97;;;22.09
52123;BMP280;44118;52.142;10.592;2022-10-16T14:16:43;100664.66;;;21.71
52123;BMP280;44118;52.142;10.592;2022-10-16T14:19:20;100653.81;;;21.50
52123;BMP280;44118;52.142;10.592;2022-10-16T14:21:47;100656.28;;;21.59
52123;BMP280;44118;52.142;10.592;2022-10-16T14:24:14;100664.66;;;21.73
52123;BMP280;44118;52.142;10.592;2022-10-16T14:26:46;100671.28;;;21.90
52123;BMP280;44118;52.142;10.592;2022-10-16T14:29:17;100669.59;;;21.86
52123;BMP280;44118;52.142;10.592;2022-10-16T14:31:57;100677.75;;;21.56
52123;BMP280;44118;52.142;10.592;2022-10-16T14:34:30;100681.41;;;21.33
52123;BMP280;44118;52.142;10.592;2022-10-16T14:39:49;100679.91;;;21.16
52123;BMP280;44118;52.142;10.592;2022-10-16T14:42:16;100675.47;;;21.30
52123;BMP280;44118;52.142;10.592;2022-10-16T14:44:44;100683.13;;;21.33
52123;BMP280;44118;52.142;10.592;2022-10-16T14:47:13;100692.66;;;21.23
52123;BMP280;44118;52.142;10.592;2022-10-16T14:49:42;100693.59;;;21.15
52123;BMP280;44118;52.142;10.592;2022-10-16T14:52:12;100689.22;;;21.24
52123;BMP280;44118;52.142;10.592;2022-10-16T14:54:37;100692.56;;;21.34
52123;BMP280;44118;52.142;10.592;2022-10-16T14:57:03;100694.22;;;21.38
52123;BMP280;44118;52.142;10.592;2022-10-16T14:59:30;100692.44;;;21.47
52123;BMP280;44118;52.142;10.592;2022-10-16T15:01:57;100692.31;;;21.54
52123;BMP280;44118;52.142;10.592;2022-10-16T15:04:22;100697.34;;;21.63
52123;BMP280;44118;52.142;10.592;2022-10-16T15:06:48;100701.66;;;21.60
52123;BMP280;44118;52.142;10.592;2022-10-16T15:09:13;100709.63;;;21.41
52123;BMP280;44118;52.142;10.592;2022-10-16T15:11:39;100709.72;;;21.30
52123;BMP280;44118;52.142;10.592;2022-10-16T15:14:05;100710.66;;;21.25
52123;BMP280;44118;52.142;10.592;2022-10-16T15:16:32;100707.28;;;21.18
52123;BMP280;44118;52.142;10.592;2022-10-16T15:18:58;100719.34;;;21.11
52123;BMP280;44118;52.142;10.592;2022-10-16T15:21:29;100725.50;;;20.95
52123;BMP280;44118;52.142;10.592;2022-10-16T15:23:56;100723.84;;;20.89
52123;BMP280;44118;52.142;10.592;2022-10-16T15:26:27;100718.75;;;20.85
52123;BMP280;44118;52.142;10.592;2022-10-16T15:28:54;100711.00;;;20.88
52123;BMP280;44118;52.142;10.592;2022-10-16T15:31:19;100719.69;;;20.78
52123;BMP280;44118;52.142;10.592;2022-10-16T15:33:49;100718.97;;;20.58
52123;BMP280;44118;52.142;10.592;2022-10-16T15:36:24;100720.78;;;20.43
52123;BMP280;44118;52.142;10.592;2022-10-16T15:38:50;100731.16;;;20.25
52123;BMP280;44118;52.142;10.592;2022-10-16T15:41:15;100727.88;;;20.07